Time;durP1;ratioP1;P1;durP2;ratioP2;P2;SDS_P1;SDS_P2;PMS_P1;PMS_P2;Temp;Humidity;BMP_temperature;BMP_pressure;BME280_temperature;BME280_humidity;BME280_pressure;Samples;Min_cycle;Max_cycle;Signal;HPM_P1;HPM_P2
2024/01/31 00:02:14;;;;;;;3.90;0.90;;;;;;;;;;5038589;28;20139;-77
2024/01/31 00:04:40;;;;;;;10.63;1.50;;;;;;;;;;5038657;28;20506;-77
2024/01/31 00:07:06;;;;;;;8.00;1.33;;;;;;;;;;5073545;28;20395;-77
2024/01/31 00:09:32;;;;;;;12.77;1.40;;;;;;;;;;5072091;28;20513;-77
2024/01/31 00:11:58;;;;;;;20.58;1.77;;;;;;;;;;5056853;28;20075;-77
2024/01/31 00:14:24;;;;;;;4.95;0.93;;;;;;;;;;5071192;28;20124;-78
2024/01/31 00:16:51;;;;;;;11.35;1.23;;;;;;;;;;5058367;28;22151;-78
2024/01/31 00:19:17;;;;;;;7.43;1.98;;;;;;;;;;5055726;28;20062;-77
2024/01/31 00:21:43;;;;;;;9.90;1.23;;;;;;;;;;5055218;28;20075;-77
2024/01/31 00:24:09;;;;;;;8.82;2.17;;;;;;;;;;5057616;28;20047;-75
2024/01/31 00:26:36;;;;;;;5.03;1.00;;;;;;;;;;5034188;28;20049;-77
2024/01/31 00:29:02;;;;;;;7.10;0.95;;;;;;;;;;5056325;28;20035;-77
2024/01/31 00:31:28;;;;;;;12.20;1.45;;;;;;;;;;5070927;28;20038;-78
2024/01/31 00:33:55;;;;;;;4.85;1.00;;;;;;;;;;5058293;28;20505;-77
2024/01/31 00:36:21;;;;;;;9.32;1.17;;;;;;;;;;5070162;28;20763;-78
2024/01/31 00:38:47;;;;;;;11.27;1.90;;;;;;;;;;5052996;28;20066;-77
2024/01/31 00:41:15;;;;;;;7.15;1.30;;;;;;;;;;5086837;28;20047;-78
2024/01/31 00:43:41;;;;;;;6.82;1.10;;;;;;;;;;5068171;28;20040;-78
2024/01/31 00:46:07;;;;;;;6.38;1.30;;;;;;;;;;5051240;28;20563;-77
2024/01/31 00:48:33;;;;;;;5.95;1.35;;;;;;;;;;5055514;28;20044;-77
2024/01/31 00:50:59;;;;;;;15.82;1.60;;;;;;;;;;5057722;28;20031;-77
2024/01/31 00:53:26;;;;;;;9.45;1.60;;;;;;;;;;5037233;28;20550;-77
2024/01/31 00:55:52;;;;;;;10.38;1.52;;;;;;;;;;5069068;28;20479;-77
2024/01/31 00:58:18;;;;;;;10.77;1.42;;;;;;;;;;5068224;28;20070;-77
2024/01/31 01:00:44;;;;;;;14.50;1.65;;;;;;;;;;5035136;28;20105;-77
2024/01/31 01:03:10;;;;;;;10.40;1.05;;;;;;;;;;5034115;28;20123;-77
2024/01/31 01:05:36;;;;;;;5.95;1.02;;;;;;;;;;5037007;28;20039;-77
2024/01/31 01:08:02;;;;;;;8.95;1.27;;;;;;;;;;5083703;28;20043;-77
2024/01/31 01:10:28;;;;;;;7.95;1.10;;;;;;;;;;5051269;28;20476;-78
2024/01/31 01:12:56;;;;;;;11.35;1.50;;;;;;;;;;5052394;28;20135;-76
2024/01/31 01:15:22;;;;;;;8.88;1.20;;;;;;;;;;5056168;28;20075;-76
2024/01/31 01:17:48;;;;;;;12.32;1.25;;;;;;;;;;5037799;28;20032;-75
2024/01/31 01:20:14;;;;;;;6.30;1.35;;;;;;;;;;5054199;28;20515;-76
2024/01/31 01:22:42;;;;;;;10.65;1.30;;;;;;;;;;5070936;28;20036;-75
2024/01/31 01:25:09;;;;;;;8.93;1.20;;;;;;;;;;5037348;28;20051;-77
2024/01/31 01:27:36;;;;;;;6.93;1.20;;;;;;;;;;5082754;28;20787;-75
2024/01/31 01:30:02;;;;;;;5.63;1.42;;;;;;;;;;5053658;28;20070;-76
2024/01/31 01:32:28;;;;;;;5.53;1.13;;;;;;;;;;5051893;28;20040;-76
2024/01/31 01:34:54;;;;;;;12.82;2.28;;;;;;;;;;5046942;28;20528;-75
2024/01/31 01:37:20;;;;;;;5.15;1.33;;;;;;;;;;5049942;28;20404;-75
2024/01/31 01:39:46;;;;;;;10.30;1.20;;;;;;;;;;5049284;28;20052;-75
2024/01/31 01:42:12;;;;;;;12.90;1.52;;;;;;;;;;5032477;28;20037;-76
2024/01/31 01:44:44;;;;;;;13.30;2.72;;;;;;;;;;5032263;28;20037;-75
2024/01/31 01:47:11;;;;;;;5.63;1.30;;;;;;;;;;5029242;28;20097;-76
2024/01/31 01:49:38;;;;;;;11.18;1.45;;;;;;;;;;5048998;28;20074;-76
2024/01/31 01:52:04;;;;;;;3.33;0.88;;;;;;;;;;5050438;28;20104;-77
2024/01/31 01:54:31;;;;;;;9.93;2.20;;;;;;;;;;5034111;28;20056;-75
2024/01/31 01:56:57;;;;;;;7.95;1.40;;;;;;;;;;5032716;28;20052;-77
2024/01/31 01:59:23;;;;;;;11.07;1.23;;;;;;;;;;5028897;28;20047;-79
2024/01/31 02:01:49;;;;;;;10.43;1.58;;;;;;;;;;5047996;28;20124;-79
2024/01/31 02:04:18;;;;;;;4.72;1.10;;;;;;;;;;5045128;28;20052;-77
2024/01/31 02:06:45;;;;;;;5.15;0.65;;;;;;;;;;5047500;28;20043;-79
2024/01/31 02:09:11;;;;;;;7.90;1.10;;;;;;;;;;5033458;28;20040;-77
2024/01/31 02:11:37;;;;;;;6.80;1.15;;;;;;;;;;5020529;28;20068;-77
2024/01/31 02:14:03;;;;;;;5.88;1.25;;;;;;;;;;5020579;28;20051;-75
2024/01/31 02:16:29;;;;;;;6.82;1.20;;;;;;;;;;5053075;28;20028;-76
2024/01/31 02:18:55;;;;;;;13.02;1.42;;;;;;;;;;5035519;28;20040;-76
2024/01/31 02:21:22;;;;;;;6.47;1.30;;;;;;;;;;5040968;28;20565;-77
2024/01/31 02:23:49;;;;;;;10.88;1.58;;;;;;;;;;5052232;28;20032;-77
2024/01/31 02:26:15;;;;;;;5.72;1.00;;;;;;;;;;5016630;28;20488;-76
2024/01/31 02:28:41;;;;;;;5.53;1.10;;;;;;;;;;5059346;28;20040;-76
2024/01/31 02:31:07;;;;;;;8.02;0.98;;;;;;;;;;5020080;28;20041;-76
2024/01/31 02:33:33;;;;;;;4.30;0.80;;;;;;;;;;5038558;28;20047;-76
2024/01/31 02:35:59;;;;;;;7.18;0.95;;;;;;;;;;5034501;28;20036;-76
2024/01/31 02:38:25;;;;;;;10.73;1.20;;;;;;;;;;5045825;28;20133;-76
2024/01/31 02:40:51;;;;;;;8.50;1.10;;;;;;;;;;5056348;28;20047;-76
2024/01/31 02:43:17;;;;;;;8.30;1.20;;;;;;;;;;5062607;28;20083;-77
2024/01/31 02:45:43;;;;;;;11.40;1.35;;;;;;;;;;5060310;28;20047;-77
2024/01/31 02:48:09;;;;;;;7.20;1.13;;;;;;;;;;5042887;28;20048;-75
2024/01/31 02:50:36;;;;;;;9.18;1.17;;;;;;;;;;5053583;28;20472;-76
2024/01/31 02:53:02;;;;;;;11.93;1.42;;;;;;;;;;5053939;28;20059;-77
2024/01/31 02:55:28;;;;;;;6.68;1.25;;;;;;;;;;5070808;28;20036;-79
2024/01/31 02:57:55;;;;;;;8.77;1.20;;;;;;;;;;5056224;28;20028;-76
2024/01/31 03:00:21;;;;;;;5.47;1.05;;;;;;;;;;5056541;28;20657;-76
2024/01/31 03:02:47;;;;;;;6.25;1.00;;;;;;;;;;5039028;28;20048;-76
2024/01/31 03:05:13;;;;;;;9.90;1.02;;;;;;;;;;5070288;28;20047;-76
2024/01/31 03:07:40;;;;;;;6.25;1.20;;;;;;;;;;5070814;28;20047;-77
2024/01/31 03:10:06;;;;;;;3.42;0.88;;;;;;;;;;5069679;28;20047;-76
2024/01/31 03:12:33;;;;;;;6.03;0.98;;;;;;;;;;5055078;28;20472;-80
2024/01/31 03:14:59;;;;;;;11.07;1.67;;;;;;;;;;5071527;28;20439;-77
2024/01/31 03:17:25;;;;;;;5.55;1.10;;;;;;;;;;5070838;28;20119;-77
2024/01/31 03:19:51;;;;;;;5.47;1.00;;;;;;;;;;5053348;28;20035;-76
2024/01/31 03:22:17;;;;;;;7.75;0.82;;;;;;;;;;5070849;28;20070;-76
2024/01/31 03:24:43;;;;;;;3.40;1.00;;;;;;;;;;5055590;28;20039;-78
2024/01/31 03:27:09;;;;;;;9.93;1.25;;;;;;;;;;5054005;28;20067;-80
2024/01/31 03:29:36;;;;;;;9.02;1.40;;;;;;;;;;5055692;28;20503;-77
2024/01/31 03:32:02;;;;;;;5.07;1.13;;;;;;;;;;5071536;28;20491;-77
2024/01/31 03:34:28;;;;;;;5.80;1.83;;;;;;;;;;5066383;28;20040;-80
2024/01/31 03:36:55;;;;;;;10.82;1.35;;;;;;;;;;5068446;28;20055;-79
2024/01/31 03:39:22;;;;;;;8.65;1.15;;;;;;;;;;5049992;28;20048;-80
2024/01/31 03:41:49;;;;;;;2.50;0.70;;;;;;;;;;5053195;28;20509;-80
2024/01/31 03:44:15;;;;;;;8.02;0.95;;;;;;;;;;5066987;28;20113;-80
2024/01/31 03:46:41;;;;;;;8.50;1.67;;;;;;;;;;5066988;28;20484;-79
2024/01/31 03:49:07;;;;;;;7.18;0.98;;;;;;;;;;5053042;28;20382;-79
2024/01/31 03:51:33;;;;;;;4.72;0.80;;;;;;;;;;5055825;28;20479;-79
2024/01/31 03:53:59;;;;;;;4.85;0.88;;;;;;;;;;5048877;28;20396;-80
2024/01/31 03:56:25;;;;;;;9.38;1.30;;;;;;;;;;5029743;28;20463;-79
2024/01/31 03:58:51;;;;;;;5.50;1.17;;;;;;;;;;5044916;28;20036;-79
2024/01/31 04:01:18;;;;;;;6.10;0.98;;;;;;;;;;5050776;28;20044;-79
2024/01/31 04:03:45;;;;;;;7.38;0.98;;;;;;;;;;5060715;28;20036;-80
2024/01/31 04:06:11;;;;;;;9.52;1.83;;;;;;;;;;5053477;28;20032;-80
2024/01/31 04:08:38;;;;;;;6.90;0.98;;;;;;;;;;5067634;28;20086;-80
2024/01/31 04:11:04;;;;;;;7.22;0.93;;;;;;;;;;5067813;28;20040;-79
2024/01/31 04:13:30;;;;;;;4.63;0.60;;;;;;;;;;5070990;28;20153;-79
2024/01/31 04:15:57;;;;;;;9.45;1.80;;;;;;;;;;5092536;28;20135;-79
2024/01/31 04:18:23;;;;;;;13.10;1.30;;;;;;;;;;5056231;28;20538;-80
2024/01/31 04:20:50;;;;;;;6.88;1.25;;;;;;;;;;5064785;28;20035;-80
2024/01/31 04:23:16;;;;;;;6.20;1.35;;;;;;;;;;5054146;28;20048;-80
2024/01/31 04:25:42;;;;;;;6.68;1.20;;;;;;;;;;5047748;28;20509;-80
2024/01/31 04:28:08;;;;;;;13.55;1.00;;;;;;;;;;5068647;28;20040;-80
2024/01/31 04:30:34;;;;;;;4.88;0.88;;;;;;;;;;5054923;28;20090;-80
2024/01/31 04:33:01;;;;;;;11.70;1.23;;;;;;;;;;5051721;28;20032;-81
2024/01/31 04:35:27;;;;;;;7.18;0.68;;;;;;;;;;5072497;28;20408;-77
2024/01/31 04:37:54;;;;;;;4.65;1.10;;;;;;;;;;5053810;28;20048;-79
2024/01/31 04:40:20;;;;;;;13.45;1.58;;;;;;;;;;5066684;28;20037;-79
2024/01/31 04:42:47;;;;;;;11.25;1.30;;;;;;;;;;5069819;28;20051;-79
2024/01/31 04:45:16;;;;;;;7.05;1.00;;;;;;;;;;5066702;28;20097;-81
2024/01/31 04:47:42;;;;;;;5.13;0.93;;;;;;;;;;5052623;28;20158;-82
2024/01/31 04:50:09;;;;;;;4.82;1.00;;;;;;;;;;5063182;28;20043;-80
2024/01/31 04:52:35;;;;;;;4.93;0.98;;;;;;;;;;5064740;28;20044;-82
2024/01/31 04:55:01;;;;;;;8.13;1.50;;;;;;;;;;5054565;28;20044;-82
2024/01/31 04:57:28;;;;;;;5.63;1.17;;;;;;;;;;5053537;28;20555;-82
2024/01/31 04:59:55;;;;;;;6.65;1.63;;;;;;;;;;5066019;28;20101;-83
2024/01/31 05:02:21;;;;;;;7.88;1.50;;;;;;;;;;5061940;28;20050;-83
2024/01/31 05:04:47;;;;;;;11.68;1.55;;;;;;;;;;5067243;28;20085;-82
2024/01/31 05:07:13;;;;;;;8.85;1.73;;;;;;;;;;5054621;28;20044;-81
2024/01/31 05:09:39;;;;;;;5.85;1.17;;;;;;;;;;5054187;28;20093;-83
2024/01/31 05:12:05;;;;;;;8.23;1.55;;;;;;;;;;5048981;28;20127;-83
2024/01/31 05:14:31;;;;;;;9.82;1.98;;;;;;;;;;5066078;28;20515;-84
2024/01/31 05:16:58;;;;;;;6.57;1.52;;;;;;;;;;5064571;28;20047;-83
2024/01/31 05:19:24;;;;;;;6.85;1.30;;;;;;;;;;5053777;28;20392;-84
2024/01/31 05:21:52;;;;;;;6.85;1.55;;;;;;;;;;5046009;28;20131;-82
2024/01/31 05:24:19;;;;;;;10.32;2.08;;;;;;;;;;5066672;28;20376;-84
2024/01/31 05:26:46;;;;;;;6.50;1.58;;;;;;;;;;5050874;28;20051;-82
2024/01/31 05:29:12;;;;;;;7.07;1.83;;;;;;;;;;5066403;28;20039;-83
2024/01/31 05:31:38;;;;;;;3.10;1.80;;;;;;;;;;5068545;28;20479;-84
2024/01/31 05:34:04;;;;;;;6.72;1.65;;;;;;;;;;5069717;28;20518;-83
2024/01/31 05:36:31;;;;;;;5.15;1.48;;;;;;;;;;5055551;28;20055;-80
2024/01/31 05:38:57;;;;;;;6.47;1.08;;;;;;;;;;5067435;28;20044;-82
2024/01/31 05:41:23;;;;;;;7.70;1.33;;;;;;;;;;5048916;28;20135;-84
2024/01/31 05:43:49;;;;;;;7.57;1.15;;;;;;;;;;5062838;28;20071;-83
2024/01/31 05:46:18;;;;;;;8.93;1.42;;;;;;;;;;5064281;28;20052;-82
2024/01/31 05:48:48;;;;;;;2.53;0.70;;;;;;;;;;5035842;28;20035;-84
2024/01/31 05:51:14;;;;;;;6.65;1.17;;;;;;;;;;5052003;28;20040;-84
2024/01/31 05:53:41;;;;;;;10.73;1.40;;;;;;;;;;5063351;28;20038;-79
2024/01/31 05:56:07;;;;;;;5.65;1.35;;;;;;;;;;5071273;28;20039;-79
2024/01/31 05:58:33;;;;;;;5.30;1.45;;;;;;;;;;5049301;28;20047;-79
2024/01/31 06:01:00;;;;;;;9.43;1.30;;;;;;;;;;5068092;28;20048;-79
2024/01/31 06:03:28;;;;;;;4.85;1.10;;;;;;;;;;5050214;28;20035;-79
2024/01/31 06:05:55;;;;;;;11.57;1.50;;;;;;;;;;5049055;28;20391;-79
2024/01/31 06:08:23;;;;;;;6.18;1.13;;;;;;;;;;5049417;28;20044;-79
2024/01/31 06:10:53;;;;;;;7.43;1.20;;;;;;;;;;5071008;28;20046;-80
2024/01/31 06:13:19;;;;;;;8.73;1.25;;;;;;;;;;5067847;28;20120;-79
2024/01/31 06:15:45;;;;;;;4.28;1.00;;;;;;;;;;5053135;28;20039;-79
2024/01/31 06:18:14;;;;;;;7.85;2.58;;;;;;;;;;5036613;28;20095;-79
2024/01/31 06:20:40;;;;;;;6.85;1.30;;;;;;;;;;5051759;28;20078;-79
2024/01/31 06:23:09;;;;;;;5.30;1.17;;;;;;;;;;5035862;28;20043;-79
2024/01/31 06:25:36;;;;;;;3.40;0.90;;;;;;;;;;5036203;28;20043;-79
2024/01/31 06:28:02;;;;;;;4.95;1.10;;;;;;;;;;5052278;28;20044;-79
2024/01/31 06:30:33;;;;;;;2.92;1.08;;;;;;;;;;5066500;28;21064;-79
2024/01/31 06:33:07;;;;;;;4.43;1.08;;;;;;;;;;5067250;28;20334;-79
2024/01/31 06:35:33;;;;;;;4.10;1.25;;;;;;;;;;5051502;28;20028;-79
2024/01/31 06:37:59;;;;;;;3.85;1.30;;;;;;;;;;5068680;28;20052;-79
2024/01/31 06:40:25;;;;;;;5.35;1.55;;;;;;;;;;5051853;28;20043;-79
2024/01/31 06:42:55;;;;;;;8.85;1.50;;;;;;;;;;5079766;28;20058;-79
2024/01/31 06:45:24;;;;;;;8.65;1.70;;;;;;;;;;5068917;28;20047;-79
2024/01/31 06:47:50;;;;;;;7.93;1.50;;;;;;;;;;5067694;28;20043;-79
2024/01/31 06:50:16;;;;;;;8.18;1.70;;;;;;;;;;5045975;28;20049;-79
2024/01/31 06:52:42;;;;;;;10.13;1.80;;;;;;;;;;5041850;28;20040;-79
2024/01/31 06:55:09;;;;;;;6.28;1.45;;;;;;;;;;5025247;28;20036;-80
2024/01/31 06:57:37;;;;;;;9.55;1.85;;;;;;;;;;5065746;28;20036;-79
2024/01/31 07:00:04;;;;;;;5.28;1.20;;;;;;;;;;5054967;28;20597;-79
2024/01/31 07:02:31;;;;;;;6.97;1.70;;;;;;;;;;5039530;28;20086;-78
2024/01/31 07:04:57;;;;;;;6.57;1.20;;;;;;;;;;5074585;28;20047;-83
2024/01/31 07:07:23;;;;;;;10.50;1.98;;;;;;;;;;5075304;28;20073;-84
2024/01/31 07:09:49;;;;;;;4.53;1.30;;;;;;;;;;5055601;28;20163;-84
2024/01/31 07:12:15;;;;;;;7.70;2.28;;;;;;;;;;5053579;28;20040;-80
2024/01/31 07:14:42;;;;;;;7.60;1.77;;;;;;;;;;5054049;28;20040;-84
2024/01/31 07:17:09;;;;;;;5.20;1.92;;;;;;;;;;5076749;28;20487;-82
2024/01/31 07:19:35;;;;;;;5.95;1.35;;;;;;;;;;5042798;28;20047;-82
2024/01/31 07:22:02;;;;;;;4.82;1.65;;;;;;;;;;5041321;28;20055;-79
2024/01/31 07:24:28;;;;;;;5.47;1.48;;;;;;;;;;5053387;28;20522;-84
2024/01/31 07:26:54;;;;;;;6.22;1.48;;;;;;;;;;5044389;28;20043;-83
2024/01/31 07:29:20;;;;;;;4.53;1.55;;;;;;;;;;5036227;28;20036;-81
2024/01/31 07:31:46;;;;;;;6.28;1.70;;;;;;;;;;5048193;28;20048;-78
2024/01/31 07:34:12;;;;;;;7.97;1.80;;;;;;;;;;5034669;28;20155;-84
2024/01/31 07:36:39;;;;;;;5.38;1.25;;;;;;;;;;5059568;28;20040;-86
2024/01/31 07:39:05;;;;;;;7.38;1.42;;;;;;;;;;5074012;28;20056;-86
2024/01/31 07:41:32;;;;;;;6.78;1.52;;;;;;;;;;5067531;28;20039;-85
2024/01/31 07:43:58;;;;;;;9.63;1.60;;;;;;;;;;5042408;28;20047;-86
2024/01/31 07:46:24;;;;;;;8.35;1.30;;;;;;;;;;5056718;28;20510;-86
2024/01/31 07:48:50;;;;;;;6.53;1.33;;;;;;;;;;5073794;28;20039;-86
2024/01/31 07:51:16;;;;;;;4.70;1.65;;;;;;;;;;5057174;28;20035;-86
2024/01/31 07:53:43;;;;;;;8.32;1.30;;;;;;;;;;5055228;28;20514;-87
2024/01/31 07:56:09;;;;;;;6.68;1.80;;;;;;;;;;5056298;28;20491;-87
2024/01/31 07:58:35;;;;;;;8.93;1.45;;;;;;;;;;5053499;28;20039;-87
2024/01/31 08:01:01;;;;;;;7.20;1.83;;;;;;;;;;5054284;28;20036;-84
2024/01/31 08:03:28;;;;;;;13.88;2.70;;;;;;;;;;5068594;28;20048;-87
2024/01/31 08:05:54;;;;;;;9.55;2.00;;;;;;;;;;5053110;28;20040;-83
2024/01/31 08:08:20;;;;;;;6.30;1.20;;;;;;;;;;5036132;28;20040;-87
2024/01/31 08:10:46;;;;;;;8.32;1.80;;;;;;;;;;5068564;28;20072;-85
2024/01/31 08:13:13;;;;;;;8.90;1.50;;;;;;;;;;5068345;28;20036;-86
2024/01/31 08:15:39;;;;;;;10.80;3.22;;;;;;;;;;5038769;28;20040;-78
2024/01/31 08:18:05;;;;;;;9.88;1.95;;;;;;;;;;5069305;28;20126;-82
2024/01/31 08:20:31;;;;;;;7.20;1.80;;;;;;;;;;5070059;28;20032;-78
2024/01/31 08:22:57;;;;;;;9.50;2.00;;;;;;;;;;5050646;28;20051;-83
2024/01/31 08:25:24;;;;;;;6.88;1.95;;;;;;;;;;5069251;28;20558;-79
2024/01/31 08:27:50;;;;;;;7.72;1.92;;;;;;;;;;5053663;28;20099;-79
2024/01/31 08:30:21;;;;;;;8.23;1.70;;;;;;;;;;5066430;28;20044;-78
2024/01/31 08:32:47;;;;;;;10.27;2.10;;;;;;;;;;5055163;28;20085;-80
2024/01/31 08:35:13;;;;;;;7.05;1.73;;;;;;;;;;5069804;28;20062;-79
2024/01/31 08:37:39;;;;;;;4.70;1.77;;;;;;;;;;5067061;28;20105;-79
2024/01/31 08:40:08;;;;;;;9.57;2.05;;;;;;;;;;5054644;28;20044;-81
2024/01/31 08:42:36;;;;;;;9.68;2.10;;;;;;;;;;5074136;28;20040;-78
2024/01/31 08:45:02;;;;;;;7.70;2.65;;;;;;;;;;5070337;28;20051;-81
2024/01/31 08:47:28;;;;;;;6.40;2.80;;;;;;;;;;5049565;28;20048;-80
2024/01/31 08:49:55;;;;;;;7.72;1.80;;;;;;;;;;5056564;28;20028;-79
2024/01/31 08:52:22;;;;;;;7.97;2.25;;;;;;;;;;5079820;28;20048;-80
2024/01/31 08:54:48;;;;;;;5.13;2.58;;;;;;;;;;5046274;28;20048;-80
2024/01/31 08:57:14;;;;;;;7.32;3.17;;;;;;;;;;5055196;28;20072;-78
2024/01/31 08:59:40;;;;;;;4.90;1.85;;;;;;;;;;5036725;28;20044;-79
2024/01/31 09:02:07;;;;;;;7.00;2.15;;;;;;;;;;5052878;28;20044;-81
2024/01/31 09:04:33;;;;;;;4.18;2.03;;;;;;;;;;5069518;28;20070;-79
2024/01/31 09:06:59;;;;;;;12.00;2.10;;;;;;;;;;5085333;28;20508;-80
2024/01/31 09:09:26;;;;;;;7.97;2.33;;;;;;;;;;5060643;28;20116;-80
2024/01/31 09:11:52;;;;;;;6.43;2.10;;;;;;;;;;5070247;28;20032;-79
2024/01/31 09:14:18;;;;;;;8.45;3.28;;;;;;;;;;5070895;28;20031;-81
2024/01/31 09:16:45;;;;;;;7.43;2.42;;;;;;;;;;5063586;28;20044;-80
2024/01/31 09:19:11;;;;;;;4.57;2.22;;;;;;;;;;5073522;28;20028;-81
2024/01/31 09:21:37;;;;;;;6.05;2.42;;;;;;;;;;5060023;28;20036;-80
2024/01/31 09:24:03;;;;;;;9.73;2.65;;;;;;;;;;5042476;28;20043;-88
2024/01/31 09:26:29;;;;;;;5.13;2.30;;;;;;;;;;5063707;28;20131;-89
2024/01/31 09:28:55;;;;;;;7.50;3.13;;;;;;;;;;5080172;28;20071;-87
2024/01/31 09:31:25;;;;;;;6.38;2.70;;;;;;;;;;5057860;28;20620;-89
2024/01/31 09:33:52;;;;;;;6.55;3.03;;;;;;;;;;5077237;28;20479;-89
2024/01/31 09:36:19;;;;;;;5.90;3.53;;;;;;;;;;5055956;28;20044;-87
2024/01/31 09:38:47;;;;;;;5.35;3.00;;;;;;;;;;5055869;28;20127;-89
2024/01/31 09:41:15;;;;;;;7.93;3.28;;;;;;;;;;5058824;28;20035;-89
2024/01/31 09:43:41;;;;;;;6.90;3.22;;;;;;;;;;5075512;28;20071;-88
2024/01/31 09:46:07;;;;;;;5.40;3.30;;;;;;;;;;5049264;28;20189;-89
2024/01/31 09:48:34;;;;;;;9.93;3.38;;;;;;;;;;5037161;28;20028;-89
2024/01/31 09:51:01;;;;;;;5.60;3.38;;;;;;;;;;5066494;28;20039;-89
2024/01/31 09:53:27;;;;;;;6.00;3.05;;;;;;;;;;5069483;28;20043;-83
2024/01/31 09:55:56;;;;;;;5.65;3.40;;;;;;;;;;5042541;28;20036;-88
2024/01/31 09:58:22;;;;;;;5.63;3.13;;;;;;;;;;5056244;28;20036;-88
2024/01/31 10:00:51;;;;;;;5.65;3.20;;;;;;;;;;5067493;28;20043;-87
2024/01/31 10:03:17;;;;;;;10.98;4.13;;;;;;;;;;5065357;28;20059;-87
2024/01/31 10:05:44;;;;;;;7.95;3.88;;;;;;;;;;5056774;28;20036;-89
2024/01/31 10:08:10;;;;;;;5.90;3.72;;;;;;;;;;5058215;28;20395;-88
2024/01/31 10:10:39;;;;;;;6.60;4.18;;;;;;;;;;5053068;28;20521;-88
2024/01/31 10:13:09;;;;;;;9.85;4.90;;;;;;;;;;5051448;28;20044;-88
2024/01/31 10:15:35;;;;;;;8.82;4.88;;;;;;;;;;5073443;28;20044;-88
2024/01/31 10:18:02;;;;;;;6.45;4.30;;;;;;;;;;5062556;28;20090;-84
2024/01/31 10:20:28;;;;;;;7.20;4.47;;;;;;;;;;5064236;28;20499;-88
2024/01/31 10:22:54;;;;;;;6.82;4.55;;;;;;;;;;5079601;28;20044;-84
2024/01/31 10:25:20;;;;;;;6.85;5.35;;;;;;;;;;5079989;28;20040;-90
2024/01/31 10:27:46;;;;;;;8.57;5.72;;;;;;;;;;5041598;28;20071;-89
2024/01/31 10:30:13;;;;;;;10.57;6.68;;;;;;;;;;5056276;28;20044;-89
2024/01/31 10:32:41;;;;;;;12.23;6.65;;;;;;;;;;5077718;28;20051;-88
2024/01/31 10:35:07;;;;;;;5.78;5.00;;;;;;;;;;5066923;28;20040;-88
2024/01/31 10:37:34;;;;;;;7.30;6.18;;;;;;;;;;5083241;28;20351;-84
2024/01/31 10:40:00;;;;;;;9.50;6.30;;;;;;;;;;5056439;28;20236;-88
2024/01/31 10:42:27;;;;;;;7.00;5.88;;;;;;;;;;5058158;28;20432;-89
2024/01/31 10:44:53;;;;;;;10.13;7.20;;;;;;;;;;5066666;28;20043;-83
2024/01/31 10:47:20;;;;;;;10.73;7.82;;;;;;;;;;5081584;28;20483;-87
2024/01/31 10:49:46;;;;;;;11.38;7.97;;;;;;;;;;5061869;28;20149;-89
2024/01/31 10:52:14;;;;;;;11.48;8.93;;;;;;;;;;5064074;28;20500;-87
2024/01/31 10:54:45;;;;;;;9.35;7.45;;;;;;;;;;5067933;28;20043;-85
2024/01/31 10:57:11;;;;;;;10.98;8.20;;;;;;;;;;5049093;28;21193;-88
2024/01/31 10:59:37;;;;;;;9.73;7.70;;;;;;;;;;5081987;28;20043;-90
2024/01/31 11:02:04;;;;;;;10.90;8.32;;;;;;;;;;5078191;28;20039;-88
2024/01/31 11:04:30;;;;;;;10.40;7.25;;;;;;;;;;5058714;28;20089;-85
2024/01/31 11:07:00;;;;;;;11.93;8.05;;;;;;;;;;5059507;28;20484;-84
2024/01/31 11:09:28;;;;;;;8.63;6.97;;;;;;;;;;5060396;28;20035;-87
2024/01/31 11:12:03;;;;;;;9.52;7.50;;;;;;;;;;5066124;28;20039;-88
2024/01/31 11:14:30;;;;;;;10.13;6.78;;;;;;;;;;5059470;28;20456;-89
2024/01/31 11:17:05;;;;;;;8.80;7.35;;;;;;;;;;5059846;28;20499;-88
2024/01/31 11:19:32;;;;;;;9.82;7.53;;;;;;;;;;5068810;28;20039;-84
2024/01/31 11:22:00;;;;;;;10.52;7.75;;;;;;;;;;5035602;28;20050;-90
2024/01/31 11:24:26;;;;;;;9.55;7.57;;;;;;;;;;5059376;28;20043;-88
2024/01/31 11:26:52;;;;;;;11.30;7.13;;;;;;;;;;5041832;28;20173;-89
2024/01/31 11:29:18;;;;;;;9.48;7.20;;;;;;;;;;5058276;28;20035;-89
2024/01/31 11:31:45;;;;;;;8.40;6.95;;;;;;;;;;5055132;28;20097;-86
2024/01/31 11:34:11;;;;;;;9.15;6.88;;;;;;;;;;5058035;28;20051;-90
2024/01/31 11:36:37;;;;;;;8.38;7.20;;;;;;;;;;5056037;28;20036;-88
2024/01/31 11:39:05;;;;;;;8.43;6.75;;;;;;;;;;5062070;28;20499;-87
2024/01/31 11:41:31;;;;;;;8.70;6.60;;;;;;;;;;5042613;28;20495;-89
2024/01/31 11:43:58;;;;;;;7.93;6.30;;;;;;;;;;5072597;28;20047;-89
2024/01/31 11:46:25;;;;;;;9.60;7.55;;;;;;;;;;5073661;28;20384;-82
2024/01/31 11:48:53;;;;;;;8.75;6.82;;;;;;;;;;5055312;28;20052;-82
2024/01/31 11:51:20;;;;;;;8.88;6.30;;;;;;;;;;5062037;28;20514;-83
2024/01/31 11:53:46;;;;;;;7.95;6.10;;;;;;;;;;5072024;28;20467;-81
2024/01/31 11:56:12;;;;;;;7.13;5.57;;;;;;;;;;5055108;28;20084;-82
2024/01/31 11:58:38;;;;;;;6.50;5.53;;;;;;;;;;5072723;28;20040;-83
2024/01/31 12:01:05;;;;;;;9.23;6.57;;;;;;;;;;5040985;28;20035;-81
2024/01/31 12:03:31;;;;;;;8.23;6.28;;;;;;;;;;5070246;28;20102;-81
2024/01/31 12:05:58;;;;;;;7.50;5.82;;;;;;;;;;5067689;28;20512;-81
2024/01/31 12:08:28;;;;;;;6.10;5.00;;;;;;;;;;5073875;28;20047;-80
2024/01/31 12:10:54;;;;;;;7.85;5.97;;;;;;;;;;5052382;28;20044;-81
2024/01/31 12:13:21;;;;;;;9.02;6.25;;;;;;;;;;5073858;28;20036;-81
2024/01/31 12:15:48;;;;;;;7.30;6.03;;;;;;;;;;5070376;28;20036;-83
2024/01/31 12:18:15;;;;;;;9.43;6.35;;;;;;;;;;5070953;28;20032;-81
2024/01/31 12:20:43;;;;;;;7.07;5.07;;;;;;;;;;5060065;28;20526;-81
2024/01/31 12:23:09;;;;;;;8.70;5.32;;;;;;;;;;5043054;28;20059;-82
2024/01/31 12:25:35;;;;;;;5.63;4.25;;;;;;;;;;5069519;28;20059;-81
2024/01/31 12:28:02;;;;;;;3.22;2.63;;;;;;;;;;5038721;28;20150;-80
2024/01/31 12:30:29;;;;;;;5.20;4.10;;;;;;;;;;5039055;28;20051;-81
2024/01/31 12:32:55;;;;;;;5.03;4.13;;;;;;;;;;5036053;28;20036;-81
2024/01/31 12:35:22;;;;;;;7.82;3.33;;;;;;;;;;5041516;28;20032;-81
2024/01/31 12:37:49;;;;;;;6.72;3.58;;;;;;;;;;5056353;28;20542;-79
2024/01/31 12:40:15;;;;;;;4.15;3.30;;;;;;;;;;5057843;28;20048;-81
2024/01/31 12:42:41;;;;;;;7.10;4.97;;;;;;;;;;5036575;28;20040;-81
2024/01/31 12:45:07;;;;;;;5.22;4.28;;;;;;;;;;5050709;28;20041;-81
2024/01/31 12:47:34;;;;;;;4.85;4.28;;;;;;;;;;5056685;28;20403;-81
2024/01/31 12:50:00;;;;;;;5.22;4.28;;;;;;;;;;5070780;28;20047;-81
2024/01/31 12:52:26;;;;;;;6.15;4.88;;;;;;;;;;5040038;28;20483;-80
2024/01/31 12:54:52;;;;;;;6.20;5.60;;;;;;;;;;5072168;28;20064;-84
2024/01/31 12:57:18;;;;;;;5.72;4.32;;;;;;;;;;5054433;28;20040;-86
2024/01/31 12:59:46;;;;;;;6.43;5.07;;;;;;;;;;5055785;28;20100;-84
2024/01/31 13:02:12;;;;;;;5.72;4.45;;;;;;;;;;5055544;28;20043;-83
2024/01/31 13:04:38;;;;;;;6.03;5.40;;;;;;;;;;5040880;28;20483;-83
2024/01/31 13:07:04;;;;;;;7.00;5.00;;;;;;;;;;5038633;28;20054;-84
2024/01/31 13:09:31;;;;;;;5.07;4.57;;;;;;;;;;5047020;28;20131;-85
2024/01/31 13:11:57;;;;;;;7.50;4.72;;;;;;;;;;5075531;28;20071;-84
2024/01/31 13:14:23;;;;;;;5.88;4.70;;;;;;;;;;5040599;28;20039;-84
2024/01/31 13:16:49;;;;;;;4.18;3.80;;;;;;;;;;5054108;28;20032;-87
2024/01/31 13:19:20;;;;;;;4.60;3.95;;;;;;;;;;5078422;28;20057;-87
2024/01/31 13:21:49;;;;;;;6.65;5.20;;;;;;;;;;5073501;28;20040;-82
2024/01/31 13:24:15;;;;;;;7.15;5.07;;;;;;;;;;5037631;28;20036;-80
2024/01/31 13:26:41;;;;;;;7.15;5.10;;;;;;;;;;5052315;28;20044;-83
2024/01/31 13:29:07;;;;;;;5.20;4.32;;;;;;;;;;5067950;28;20050;-81
2024/01/31 13:31:33;;;;;;;5.47;4.97;;;;;;;;;;5045613;28;20089;-81
2024/01/31 13:34:00;;;;;;;7.80;5.72;;;;;;;;;;5052240;28;20122;-82
2024/01/31 13:36:27;;;;;;;7.47;5.00;;;;;;;;;;5033064;28;20040;-82
2024/01/31 13:38:56;;;;;;;5.70;5.15;;;;;;;;;;5069252;28;20411;-82
2024/01/31 13:41:22;;;;;;;5.45;4.65;;;;;;;;;;5051885;28;20151;-82
2024/01/31 13:43:49;;;;;;;6.65;5.00;;;;;;;;;;5051872;28;20499;-82
2024/01/31 13:46:16;;;;;;;7.43;5.55;;;;;;;;;;5052679;28;20048;-81
2024/01/31 13:48:42;;;;;;;8.25;5.55;;;;;;;;;;5050291;28;20044;-81
2024/01/31 13:51:09;;;;;;;6.90;5.43;;;;;;;;;;5040028;28;20058;-81
2024/01/31 13:53:38;;;;;;;8.90;6.50;;;;;;;;;;5060316;28;20487;-80
2024/01/31 13:56:04;;;;;;;8.35;6.07;;;;;;;;;;5057841;28;20552;-83
2024/01/31 13:58:30;;;;;;;5.63;4.97;;;;;;;;;;5054759;28;20040;-81
2024/01/31 14:00:56;;;;;;;9.95;7.07;;;;;;;;;;5050837;28;20045;-81
2024/01/31 14:03:22;;;;;;;10.68;6.97;;;;;;;;;;5052321;28;20050;-79
2024/01/31 14:05:48;;;;;;;9.13;6.15;;;;;;;;;;5033239;28;20129;-77
2024/01/31 14:08:14;;;;;;;9.95;6.88;;;;;;;;;;5054574;28;20032;-78
2024/01/31 14:10:40;;;;;;;7.90;5.82;;;;;;;;;;5074365;28;20114;-78
2024/01/31 14:13:06;;;;;;;6.50;5.90;;;;;;;;;;5038754;28;20415;-78
2024/01/31 14:15:33;;;;;;;7.05;6.38;;;;;;;;;;5044981;28;20094;-77
2024/01/31 14:17:59;;;;;;;8.23;5.75;;;;;;;;;;5060750;28;20036;-77
2024/01/31 14:20:25;;;;;;;6.20;5.03;;;;;;;;;;5042223;28;20373;-78
2024/01/31 14:22:52;;;;;;;5.95;5.35;;;;;;;;;;5059810;28;20102;-77
2024/01/31 14:25:18;;;;;;;6.32;5.72;;;;;;;;;;5059738;28;20046;-77
2024/01/31 14:27:44;;;;;;;7.78;6.28;;;;;;;;;;5056951;28;20538;-79
2024/01/31 14:30:10;;;;;;;8.35;6.40;;;;;;;;;;5070794;28;20048;-78
2024/01/31 14:32:36;;;;;;;6.72;5.15;;;;;;;;;;5039180;28;20103;-77
2024/01/31 14:35:03;;;;;;;7.53;6.22;;;;;;;;;;5072675;28;20035;-78
2024/01/31 14:37:29;;;;;;;11.35;6.55;;;;;;;;;;5038079;28;20044;-77